createdAt,value
2023-07-22T00:00:15.846Z,4.47
2023-07-22T00:03:05.088Z,4.30
2023-07-22T00:05:34.131Z,4.50
2023-07-22T00:08:03.049Z,4.07
2023-07-22T00:10:31.814Z,4.50
2023-07-22T00:13:00.549Z,4.20
2023-07-22T00:15:30.463Z,4.30
2023-07-22T00:17:59.268Z,4.43
2023-07-22T00:20:30.421Z,4.67
2023-07-22T00:22:59.815Z,4.30
2023-07-22T00:25:28.711Z,4.10
2023-07-22T00:27:58.142Z,4.20
2023-07-22T00:30:28.965Z,4.40
2023-07-22T00:32:58.229Z,4.77
2023-07-22T00:35:27.096Z,4.60
2023-07-22T00:37:56.132Z,4.40
2023-07-22T00:40:25.219Z,4.23
2023-07-22T00:42:54.091Z,4.97
2023-07-22T00:45:26.916Z,4.70
2023-07-22T00:47:55.865Z,4.50
2023-07-22T00:50:27.331Z,4.20
2023-07-22T00:52:56.501Z,4.50
2023-07-22T00:55:26.412Z,4.87
2023-07-22T00:57:56.704Z,5.07
2023-07-22T01:00:28.625Z,4.53
2023-07-22T01:02:57.899Z,4.73
2023-07-22T01:05:31.416Z,4.77
2023-07-22T01:08:00.543Z,4.58
2023-07-22T01:10:29.584Z,4.87
2023-07-22T01:12:59.448Z,5.17
2023-07-22T01:15:29.719Z,4.77
2023-07-22T01:18:02.134Z,5.27
2023-07-22T01:20:31.889Z,5.10
2023-07-22T01:23:01.088Z,5.25
2023-07-22T01:25:30.903Z,5.07
2023-07-22T01:28:00.676Z,4.33
2023-07-22T01:30:29.554Z,5.23
2023-07-22T01:33:01.119Z,4.90
2023-07-22T01:35:29.891Z,5.10
2023-07-22T01:37:58.734Z,5.00
2023-07-22T01:40:29.138Z,6.10
2023-07-22T01:42:57.897Z,6.13
2023-07-22T01:45:26.727Z,5.57
2023-07-22T01:47:55.535Z,5.50
2023-07-22T01:50:24.814Z,5.50
2023-07-22T01:52:53.689Z,5.67
2023-07-22T01:55:24.766Z,5.43
2023-07-22T01:57:54.764Z,6.07
2023-07-22T02:00:27.793Z,6.13
2023-07-22T02:02:57.890Z,6.40
2023-07-22T02:05:27.950Z,6.07
2023-07-22T02:07:56.696Z,7.20
2023-07-22T02:10:25.677Z,7.50
2023-07-22T02:12:54.627Z,7.90
2023-07-22T02:15:26.559Z,7.40
2023-07-22T02:17:57.205Z,8.00
2023-07-22T02:20:29.385Z,8.17
2023-07-22T02:22:58.247Z,8.17
2023-07-22T02:25:27.165Z,8.07
2023-07-22T02:27:55.857Z,8.17
2023-07-22T02:30:27.648Z,8.77
2023-07-22T02:32:56.808Z,7.07
2023-07-22T02:35:25.880Z,8.37
2023-07-22T02:37:54.775Z,8.23
2023-07-22T02:40:26.149Z,8.50
2023-07-22T02:42:55.039Z,7.80
2023-07-22T02:45:27.433Z,8.70
2023-07-22T02:47:56.296Z,8.40
2023-07-22T02:50:25.193Z,7.70
2023-07-22T02:52:54.232Z,9.90
2023-07-22T02:55:26.534Z,9.13
2023-07-22T02:57:55.351Z,8.87
2023-07-22T03:00:28.277Z,9.33
2023-07-22T03:03:01.209Z,9.00
2023-07-22T03:05:31.395Z,9.53
2023-07-22T03:08:00.676Z,8.63
2023-07-22T03:10:29.850Z,8.25
2023-07-22T03:13:00.246Z,7.80
2023-07-22T03:15:29.163Z,7.87
2023-07-22T03:17:59.761Z,8.30
2023-07-22T03:20:29.063Z,8.03
2023-07-22T03:22:57.790Z,8.60
2023-07-22T03:25:26.951Z,8.50
2023-07-22T03:27:57.012Z,8.83
2023-07-22T03:30:26.536Z,8.30
2023-07-22T03:32:55.437Z,9.13
2023-07-22T03:35:26.452Z,9.33
2023-07-22T03:37:55.391Z,9.47
2023-07-22T03:40:29.224Z,9.00
2023-07-22T03:45:27.264Z,7.90
2023-07-22T03:47:58.725Z,8.70
2023-07-22T03:50:27.933Z,8.77
2023-07-22T03:52:56.974Z,8.07
2023-07-22T03:55:26.681Z,7.83
2023-07-22T03:57:55.575Z,7.70
2023-07-22T04:00:26.546Z,8.47
2023-07-22T04:02:55.450Z,8.17
2023-07-22T04:05:25.006Z,7.47
2023-07-22T04:07:53.941Z,7.67
2023-07-22T04:10:25.182Z,8.33
2023-07-22T04:12:54.024Z,7.70
2023-07-22T04:15:25.537Z,7.70
2023-07-22T04:17:54.353Z,7.47
2023-07-22T04:20:25.576Z,6.70
2023-07-22T04:22:54.540Z,6.70
2023-07-22T04:25:26.045Z,5.80
2023-07-22T04:27:55.099Z,7.20
2023-07-22T04:30:26.582Z,6.27
2023-07-22T04:32:56.133Z,6.03
2023-07-22T04:35:25.471Z,5.83
2023-07-22T04:37:54.277Z,6.20
2023-07-22T04:40:25.706Z,5.73
2023-07-22T04:42:54.441Z,5.90
2023-07-22T04:45:25.958Z,5.70
2023-07-22T04:47:54.960Z,5.43
2023-07-22T04:50:26.306Z,5.60
2023-07-22T04:52:56.142Z,5.67
2023-07-22T04:55:26.831Z,5.00
2023-07-22T04:57:55.871Z,5.43
2023-07-22T05:00:29.672Z,5.83
2023-07-22T05:05:26.591Z,5.23
2023-07-22T05:07:55.408Z,5.10
2023-07-22T05:10:25.636Z,6.13
2023-07-22T05:12:54.570Z,5.33
2023-07-22T05:15:31.603Z,5.73
2023-07-22T05:18:00.598Z,5.60
2023-07-22T05:20:29.793Z,6.13
2023-07-22T05:22:59.326Z,6.30
2023-07-22T05:25:28.279Z,6.20
2023-07-22T05:27:57.115Z,5.90
2023-07-22T05:30:34.987Z,6.47
2023-07-22T05:33:05.395Z,6.33
2023-07-22T05:35:34.415Z,6.30
2023-07-22T05:38:04.829Z,6.37
2023-07-22T05:40:33.686Z,6.63
2023-07-22T05:43:03.450Z,6.27
2023-07-22T05:45:32.290Z,6.67
2023-07-22T05:48:01.185Z,6.67
2023-07-22T05:50:29.972Z,6.60
2023-07-22T05:52:59.163Z,6.73
2023-07-22T05:55:27.958Z,6.23
2023-07-22T05:57:57.150Z,6.70
2023-07-22T06:00:26.181Z,6.13
2023-07-22T06:02:55.149Z,6.10
2023-07-22T06:05:25.581Z,6.50
2023-07-22T06:07:57.672Z,5.83
2023-07-22T06:10:26.591Z,6.07
2023-07-22T06:12:55.385Z,5.50
2023-07-22T06:15:26.226Z,6.10
2023-07-22T06:17:55.290Z,5.87
2023-07-22T06:20:24.662Z,5.70
2023-07-22T06:22:53.468Z,5.13
2023-07-22T06:25:23.741Z,5.27
2023-07-22T06:27:54.760Z,4.73
2023-07-22T06:30:28.033Z,5.10
2023-07-22T06:32:57.250Z,5.47
2023-07-22T06:35:26.112Z,4.30
2023-07-22T06:37:54.786Z,4.25
2023-07-22T06:40:24.716Z,4.10
2023-07-22T06:42:53.422Z,3.77
2023-07-22T06:45:24.903Z,3.00
2023-07-22T06:47:54.199Z,3.37
2023-07-22T06:50:25.682Z,2.57
2023-07-22T06:52:54.576Z,2.83
2023-07-22T06:55:26.137Z,2.87
2023-07-22T06:57:57.675Z,2.67
2023-07-22T07:00:26.656Z,2.70
2023-07-22T07:02:56.232Z,2.97
2023-07-22T07:05:26.637Z,2.30
2023-07-22T07:07:56.326Z,2.53
2023-07-22T07:10:25.519Z,2.97
2023-07-22T07:12:54.290Z,2.13
2023-07-22T07:15:25.048Z,2.53
2023-07-22T07:17:54.021Z,2.40
2023-07-22T07:20:26.458Z,2.70
2023-07-22T07:22:55.344Z,2.73
2023-07-22T07:25:27.475Z,2.23
2023-07-22T07:27:56.357Z,2.93
2023-07-22T07:30:28.447Z,2.10
2023-07-22T07:32:57.409Z,2.10
2023-07-22T07:35:26.358Z,2.73
2023-07-22T07:37:55.323Z,2.70
2023-07-22T07:40:27.462Z,2.75
2023-07-22T07:42:56.489Z,2.43
2023-07-22T07:45:26.600Z,2.20
2023-07-22T07:47:55.477Z,2.17
2023-07-22T07:50:26.139Z,2.50
2023-07-22T07:52:55.205Z,2.07
2023-07-22T07:55:25.078Z,2.00
2023-07-22T07:57:53.869Z,2.30
2023-07-22T08:00:25.829Z,2.07
2023-07-22T08:02:54.546Z,2.07
2023-07-22T08:05:26.527Z,1.87
2023-07-22T08:07:55.533Z,2.10
2023-07-22T08:10:27.460Z,2.17
2023-07-22T08:12:56.449Z,2.00
2023-07-22T08:15:26.238Z,1.90
2023-07-22T08:17:55.142Z,2.10
2023-07-22T08:20:24.801Z,2.13
2023-07-22T08:22:53.735Z,1.80
2023-07-22T08:25:25.306Z,2.27
2023-07-22T08:27:54.034Z,2.20
2023-07-22T08:30:26.316Z,1.70
2023-07-22T08:32:57.274Z,1.90
2023-07-22T08:35:27.068Z,2.10
2023-07-22T08:37:55.974Z,2.30
2023-07-22T08:40:25.585Z,1.90
2023-07-22T08:42:55.117Z,2.03
2023-07-22T08:45:33.235Z,2.00
2023-07-22T08:48:05.346Z,2.00
2023-07-22T08:50:40.075Z,2.10
2023-07-22T08:53:10.883Z,1.73
2023-07-22T08:55:43.008Z,1.83
2023-07-22T08:58:13.643Z,2.17
2023-07-22T09:00:43.205Z,2.10
2023-07-22T09:03:16.336Z,2.30
2023-07-22T09:05:46.119Z,2.33
2023-07-22T09:08:15.299Z,2.10
2023-07-22T09:10:44.674Z,1.97
2023-07-22T09:13:16.549Z,2.00
2023-07-22T09:15:46.305Z,2.10
2023-07-22T09:18:16.466Z,2.37
2023-07-22T09:20:45.357Z,2.10
2023-07-22T09:23:15.317Z,2.40
2023-07-22T09:25:45.398Z,2.07
2023-07-22T09:28:14.928Z,2.00
2023-07-22T09:30:43.733Z,1.95
2023-07-22T09:33:23.172Z,2.67
2023-07-22T09:35:51.976Z,2.00
2023-07-22T09:38:25.201Z,2.10
2023-07-22T09:43:24.095Z,1.77
2023-07-22T09:45:53.998Z,1.93
2023-07-22T09:48:24.211Z,1.80
2023-07-22T09:50:59.195Z,1.43
2023-07-22T09:53:28.125Z,1.80
2023-07-22T09:56:03.923Z,1.40
2023-07-22T09:58:34.103Z,2.00
2023-07-22T10:01:04.908Z,1.60
2023-07-22T10:03:39.179Z,1.60
2023-07-22T10:06:09.133Z,1.33
2023-07-22T10:08:46.113Z,1.53
2023-07-22T10:11:16.643Z,1.63
2023-07-22T10:13:46.141Z,1.60
2023-07-22T10:16:16.162Z,1.23
2023-07-22T10:18:46.112Z,1.37
2023-07-22T10:21:15.887Z,1.30
2023-07-22T10:23:48.502Z,1.60
2023-07-22T10:26:21.309Z,1.80
2023-07-22T10:28:56.669Z,1.77
2023-07-22T10:31:25.864Z,1.70
2023-07-22T10:33:55.323Z,1.40
2023-07-22T10:36:30.867Z,1.47
2023-07-22T10:39:04.288Z,1.40
2023-07-22T10:41:39.142Z,1.57
2023-07-22T10:44:10.996Z,1.60
2023-07-22T10:46:44.129Z,1.50
2023-07-22T10:49:16.860Z,1.50
2023-07-22T10:51:51.012Z,1.50
2023-07-22T10:54:34.502Z,1.43
2023-07-22T10:59:36.527Z,1.60
2023-07-22T11:02:23.665Z,1.70
2023-07-22T11:04:56.832Z,1.67
2023-07-22T11:07:33.882Z,1.40
2023-07-22T11:10:16.941Z,1.73
2023-07-22T11:12:46.679Z,1.60
2023-07-22T11:15:19.263Z,1.77
2023-07-22T11:17:49.463Z,1.27
2023-07-22T11:20:18.494Z,1.30
2023-07-22T11:22:48.129Z,1.60
2023-07-22T11:25:20.252Z,1.60
2023-07-22T11:27:53.666Z,1.47
2023-07-22T11:30:28.272Z,1.60
2023-07-22T11:33:00.444Z,1.57
2023-07-22T11:35:30.202Z,1.60
2023-07-22T11:38:03.999Z,1.50
2023-07-22T11:40:35.681Z,1.67
2023-07-22T11:43:05.109Z,1.67
2023-07-22T11:45:34.094Z,1.60
2023-07-22T11:48:09.854Z,1.90
2023-07-22T11:50:38.849Z,1.70
2023-07-22T11:53:09.486Z,1.70
2023-07-22T11:55:41.104Z,1.63
2023-07-22T11:58:11.915Z,1.90
2023-07-22T12:00:52.917Z,1.73
2023-07-22T12:03:34.610Z,1.83
2023-07-22T12:06:04.459Z,1.50
2023-07-22T12:08:33.385Z,1.67
2023-07-22T12:11:04.446Z,1.60
2023-07-22T12:13:40.694Z,1.60
2023-07-22T12:16:09.598Z,1.00
2023-07-22T12:18:45.452Z,1.50
2023-07-22T12:21:16.390Z,1.60
2023-07-22T12:23:48.231Z,1.50
2023-07-22T12:26:17.025Z,1.40
2023-07-22T12:28:45.827Z,1.60
2023-07-22T12:31:15.363Z,1.60
2023-07-22T12:33:44.270Z,1.53
2023-07-22T12:36:13.893Z,1.60
2023-07-22T12:38:46.813Z,1.63
2023-07-22T12:41:16.902Z,1.70
2023-07-22T12:43:45.809Z,1.67
2023-07-22T12:46:17.022Z,1.50
2023-07-22T12:48:46.073Z,1.97
2023-07-22T12:51:17.672Z,1.70
2023-07-22T12:53:46.606Z,1.60
2023-07-22T12:56:18.378Z,1.70
2023-07-22T12:58:47.250Z,1.60
2023-07-22T13:01:16.670Z,1.57
2023-07-22T13:03:45.734Z,1.53
2023-07-22T13:06:17.374Z,2.00
2023-07-22T13:08:46.276Z,1.83
2023-07-22T13:11:17.291Z,1.57
2023-07-22T13:13:46.228Z,1.40
2023-07-22T13:16:17.367Z,1.47
2023-07-22T13:18:46.233Z,1.60
2023-07-22T13:21:18.482Z,1.70
2023-07-22T13:23:47.285Z,1.77
2023-07-22T13:26:17.340Z,1.47
2023-07-22T13:28:46.153Z,1.67
2023-07-22T13:31:15.662Z,1.80
2023-07-22T13:33:44.497Z,1.73
2023-07-22T13:36:14.173Z,1.47
2023-07-22T13:38:46.349Z,1.50
2023-07-22T13:41:15.610Z,1.50
2023-07-22T13:43:44.351Z,1.73
2023-07-22T13:46:14.696Z,1.50
2023-07-22T13:48:43.469Z,1.67
2023-07-22T13:51:12.201Z,1.60
2023-07-22T13:53:45.016Z,1.60
2023-07-22T13:56:14.877Z,1.87
2023-07-22T13:58:43.758Z,1.60
2023-07-22T14:01:16.082Z,2.13
2023-07-22T14:03:44.929Z,1.70
2023-07-22T14:06:14.689Z,1.80
2023-07-22T14:08:46.855Z,1.60
2023-07-22T14:11:16.066Z,1.90
2023-07-22T14:13:44.955Z,2.13
2023-07-22T14:16:22.652Z,1.60
2023-07-22T14:18:53.445Z,1.67
2023-07-22T14:21:22.360Z,1.67
2023-07-22T14:23:51.078Z,1.70
2023-07-22T14:26:20.996Z,1.60
2023-07-22T14:28:49.653Z,1.70
2023-07-22T14:31:18.596Z,1.90
2023-07-22T14:33:47.498Z,1.50
2023-07-22T14:36:17.142Z,1.63
2023-07-22T14:38:46.686Z,1.50
2023-07-22T14:41:17.033Z,2.30
2023-07-22T14:43:45.756Z,2.30
2023-07-22T14:46:17.305Z,2.10
2023-07-22T14:48:46.286Z,1.67
2023-07-22T14:51:16.426Z,1.80
2023-07-22T14:53:48.254Z,1.90
2023-07-22T14:56:17.078Z,1.33
2023-07-22T14:58:46.240Z,1.97
2023-07-22T15:01:17.574Z,2.10
2023-07-22T15:03:46.576Z,1.80
2023-07-22T15:06:15.996Z,1.77
2023-07-22T15:08:45.006Z,1.83
2023-07-22T15:11:16.094Z,1.93
2023-07-22T15:13:45.020Z,1.73
2023-07-22T15:16:16.103Z,2.63
2023-07-22T15:18:44.969Z,2.20
2023-07-22T15:21:14.423Z,1.67
2023-07-22T15:23:46.350Z,2.00
2023-07-22T15:26:18.076Z,1.80
2023-07-22T15:28:47.746Z,1.60
2023-07-22T15:31:21.692Z,1.80
2023-07-22T15:33:51.201Z,1.73
2023-07-22T15:36:20.017Z,2.20
2023-07-22T15:38:48.963Z,1.80
2023-07-22T15:41:17.938Z,2.40
2023-07-22T15:43:49.001Z,1.87
2023-07-22T15:46:17.788Z,1.63
2023-07-22T15:48:46.697Z,2.13
2023-07-22T15:51:18.343Z,1.90
2023-07-22T15:53:47.166Z,1.80
2023-07-22T15:56:16.933Z,2.00
2023-07-22T15:58:45.694Z,1.90
2023-07-22T16:01:15.542Z,1.93
2023-07-22T16:03:44.506Z,1.97
2023-07-22T16:06:26.909Z,1.77
2023-07-22T16:09:04.180Z,1.77
2023-07-22T16:11:33.239Z,2.00
2023-07-22T16:14:04.166Z,2.00
2023-07-22T16:16:33.962Z,1.53
2023-07-22T16:19:06.042Z,1.65
2023-07-22T16:21:34.798Z,1.70
2023-07-22T16:24:03.808Z,1.90
2023-07-22T16:26:32.584Z,2.10
2023-07-22T16:29:02.640Z,1.60
2023-07-22T16:31:31.508Z,1.70
2023-07-22T16:34:02.409Z,1.77
2023-07-22T16:36:31.287Z,2.30
2023-07-22T16:38:59.994Z,1.80
2023-07-22T16:41:29.161Z,2.03
2023-07-22T16:43:58.275Z,2.03
2023-07-22T16:46:28.207Z,2.00
2023-07-22T16:48:57.097Z,1.90
2023-07-22T16:51:26.079Z,1.90
2023-07-22T16:53:55.390Z,2.00
2023-07-22T16:56:24.588Z,2.00
2023-07-22T16:58:54.371Z,2.33
2023-07-22T17:01:23.562Z,1.83
2023-07-22T17:03:52.393Z,1.77
2023-07-22T17:06:21.536Z,1.60
2023-07-22T17:08:50.437Z,1.70
2023-07-22T17:11:19.458Z,1.83
2023-07-22T17:13:50.449Z,1.60
2023-07-22T17:16:19.523Z,1.83
2023-07-22T17:18:48.339Z,1.90
2023-07-22T17:21:17.574Z,2.17
2023-07-22T17:23:46.329Z,2.03
2023-07-22T17:26:17.664Z,2.23
2023-07-22T17:28:46.496Z,1.60
2023-07-22T17:31:16.795Z,2.10
2023-07-22T17:33:45.697Z,2.20
2023-07-22T17:36:17.378Z,1.63
2023-07-22T17:38:46.264Z,2.00
2023-07-22T17:41:16.113Z,2.37
2023-07-22T17:43:45.135Z,1.77
2023-07-22T17:46:16.391Z,1.80
2023-07-22T17:48:47.672Z,1.87
2023-07-22T17:51:17.979Z,2.07
2023-07-22T17:53:46.709Z,2.00
2023-07-22T17:56:15.760Z,1.90
2023-07-22T17:58:44.853Z,1.83
2023-07-22T18:01:13.658Z,1.80
2023-07-22T18:03:44.174Z,2.57
2023-07-22T18:06:13.124Z,2.27
2023-07-22T18:08:45.554Z,2.27
2023-07-22T18:11:15.108Z,1.90
2023-07-22T18:13:44.119Z,2.10
2023-07-22T18:16:13.024Z,2.10
2023-07-22T18:18:41.981Z,2.03
2023-07-22T18:21:11.345Z,2.13
2023-07-22T18:23:46.924Z,2.07
2023-07-22T18:26:17.557Z,1.93
2023-07-22T18:28:46.383Z,2.03
2023-07-22T18:31:19.396Z,2.23
2023-07-22T18:33:49.820Z,1.90
2023-07-22T18:36:18.873Z,2.00
2023-07-22T18:38:47.848Z,2.27
2023-07-22T18:41:19.384Z,2.20
2023-07-22T18:43:48.550Z,2.30
2023-07-22T18:46:21.578Z,1.90
2023-07-22T18:48:50.531Z,2.00
2023-07-22T18:51:19.593Z,2.00
2023-07-22T18:53:48.606Z,2.17
2023-07-22T18:56:17.493Z,2.10
2023-07-22T18:58:46.284Z,2.37
2023-07-22T19:01:17.599Z,1.77
2023-07-22T19:03:46.667Z,2.17
2023-07-22T19:06:16.621Z,2.00
2023-07-22T19:08:46.904Z,2.30
2023-07-22T19:11:18.682Z,2.40
2023-07-22T19:13:47.524Z,2.23
2023-07-22T19:16:16.779Z,2.43
2023-07-22T19:18:45.775Z,2.40
2023-07-22T19:21:15.905Z,2.57
2023-07-22T19:23:45.934Z,2.27
2023-07-22T19:26:17.073Z,2.80
2023-07-22T19:28:45.955Z,2.60
2023-07-22T19:31:17.084Z,2.80
2023-07-22T19:33:45.965Z,4.83
2023-07-22T19:36:17.449Z,6.57
2023-07-22T19:38:46.425Z,7.23
2023-07-22T19:41:17.993Z,6.03
2023-07-22T19:43:46.721Z,5.57
2023-07-22T19:46:17.443Z,5.40
2023-07-22T19:48:46.392Z,4.90
2023-07-22T19:51:18.939Z,3.90
2023-07-22T19:53:48.299Z,4.13
2023-07-22T19:56:18.148Z,3.30
2023-07-22T19:58:47.235Z,3.10
2023-07-22T20:01:19.750Z,3.33
2023-07-22T20:03:51.892Z,3.30
2023-07-22T20:06:20.802Z,3.10
2023-07-22T20:08:52.228Z,3.10
2023-07-22T20:11:20.989Z,3.20
2023-07-22T20:13:51.697Z,3.00
2023-07-22T20:16:20.566Z,3.07
2023-07-22T20:18:49.504Z,3.17
2023-07-22T20:21:18.358Z,3.10
2023-07-22T20:23:49.210Z,3.10
2023-07-22T20:26:18.038Z,3.07
2023-07-22T20:28:46.992Z,3.10
2023-07-22T20:31:18.627Z,3.47
2023-07-22T20:33:47.617Z,3.07
2023-07-22T20:36:17.694Z,3.13
2023-07-22T20:38:46.569Z,3.10
2023-07-22T20:41:18.128Z,3.30
2023-07-22T20:43:47.357Z,3.30
2023-07-22T20:46:18.589Z,2.83
2023-07-22T20:48:47.365Z,3.10
2023-07-22T20:51:20.152Z,3.13
2023-07-22T20:53:49.217Z,3.30
2023-07-22T20:56:18.699Z,3.40
2023-07-22T20:58:47.445Z,3.90
2023-07-22T21:01:18.558Z,3.47
2023-07-22T21:03:47.377Z,3.77
2023-07-22T21:06:18.146Z,3.47
2023-07-22T21:08:47.070Z,3.73
2023-07-22T21:11:16.922Z,3.83
2023-07-22T21:13:45.710Z,3.73
2023-07-22T21:16:15.726Z,3.90
2023-07-22T21:18:44.576Z,3.73
2023-07-22T21:21:16.215Z,3.57
2023-07-22T21:23:45.137Z,3.73
2023-07-22T21:26:14.085Z,3.93
2023-07-22T21:28:43.359Z,4.50
2023-07-22T21:31:12.217Z,4.37
2023-07-22T21:33:41.146Z,4.13
2023-07-22T21:36:10.630Z,3.93
2023-07-22T21:38:45.646Z,4.17
2023-07-22T21:41:16.771Z,4.63
2023-07-22T21:43:45.708Z,3.90
2023-07-22T21:46:16.857Z,4.40
2023-07-22T21:48:45.771Z,4.50
2023-07-22T21:51:16.857Z,4.67
2023-07-22T21:53:45.630Z,4.53
2023-07-22T21:56:16.115Z,3.93
2023-07-22T21:58:45.085Z,4.57
2023-07-22T22:01:13.848Z,3.97
2023-07-22T22:03:43.850Z,4.23
2023-07-22T22:06:12.673Z,4.10
2023-07-22T22:08:45.451Z,4.23
2023-07-22T22:11:16.727Z,4.40
2023-07-22T22:13:45.502Z,4.00
2023-07-22T22:16:15.786Z,3.83
2023-07-22T22:18:44.665Z,4.57
2023-07-22T22:21:13.532Z,4.57
2023-07-22T22:23:46.002Z,4.30
2023-07-22T22:26:17.120Z,4.67
2023-07-22T22:28:45.914Z,4.03
2023-07-22T22:31:17.676Z,4.23
2023-07-22T22:33:46.488Z,4.30
2023-07-22T22:36:18.254Z,4.30
2023-07-22T22:38:46.940Z,4.20
2023-07-22T22:41:17.974Z,4.40
2023-07-22T22:43:46.899Z,4.50
2023-07-22T22:46:16.885Z,4.83
2023-07-22T22:48:45.848Z,4.40
2023-07-22T22:51:17.212Z,4.27
2023-07-22T22:53:46.044Z,4.30
2023-07-22T22:56:16.019Z,4.70
2023-07-22T22:58:44.828Z,4.80
2023-07-22T23:01:16.524Z,4.30
2023-07-22T23:03:45.671Z,4.40
2023-07-22T23:06:15.896Z,4.40
2023-07-22T23:08:46.346Z,4.17
2023-07-22T23:11:21.659Z,4.13
2023-07-22T23:13:52.388Z,4.50
2023-07-22T23:16:21.671Z,4.23
2023-07-22T23:18:50.990Z,4.57
2023-07-22T23:21:20.173Z,3.87
2023-07-22T23:23:48.998Z,4.35
2023-07-22T23:26:17.906Z,4.33
2023-07-22T23:28:46.950Z,4.03
2023-07-22T23:31:18.549Z,3.80
2023-07-22T23:33:47.273Z,4.00
2023-07-22T23:36:18.593Z,4.43
2023-07-22T23:38:47.492Z,4.70
2023-07-22T23:41:16.744Z,4.23
2023-07-22T23:43:45.534Z,3.90
2023-07-22T23:46:14.460Z,4.30
2023-07-22T23:48:44.013Z,3.83
2023-07-22T23:51:12.812Z,4.53
2023-07-22T23:53:44.751Z,4.80
2023-07-22T23:56:13.571Z,4.60
2023-07-22T23:58:42.373Z,4.33
